Time;durP1;ratioP1;P1;durP2;ratioP2;P2;SDS_P1;SDS_P2;PMS_P1;PMS_P2;Temp;Humidity;BMP_temperature;BMP_pressure;BME280_temperature;BME280_humidity;BME280_pressure;Samples;Min_cycle;Max_cycle;Signal;HPM_P1;HPM_P2
2021/06/15 00:00:42;;;;;;;3.83;2.35;;;;;;;;;;143738;566;46020;-86
2021/06/15 00:03:09;;;;;;;6.57;2.08;;;;;;;;;;143732;588;46021;-86
2021/06/15 00:05:36;;;;;;;3.85;2.15;;;;;;;;;;143735;586;46012;-87
2021/06/15 00:08:03;;;;;;;3.28;1.48;;;;;;;;;;143732;564;46022;-85
2021/06/15 00:10:30;;;;;;;3.35;2.15;;;;;;;;;;143732;564;46012;-85
2021/06/15 00:12:57;;;;;;;6.05;1.60;;;;;;;;;;143734;589;46021;-87
2021/06/15 00:15:25;;;;;;;2.90;1.58;;;;;;;;;;143737;573;46012;-85
2021/06/15 00:17:54;;;;;;;9.95;1.70;;;;;;;;;;143734;571;46021;-92
2021/06/15 00:20:25;;;;;;;4.87;1.95;;;;;;;;;;143736;577;45020;-85
2021/06/15 00:22:53;;;;;;;3.78;1.77;;;;;;;;;;143736;583;46020;-86
2021/06/15 00:25:20;;;;;;;9.48;2.25;;;;;;;;;;143735;576;46013;-86
2021/06/15 00:27:48;;;;;;;3.58;1.62;;;;;;;;;;143735;590;46020;-86
2021/06/15 00:30:17;;;;;;;7.72;1.40;;;;;;;;;;143733;578;46020;-85
2021/06/15 00:32:50;;;;;;;3.97;1.50;;;;;;;;;;143734;577;46021;-87
2021/06/15 00:35:17;;;;;;;4.35;1.67;;;;;;;;;;143734;574;46012;-87
2021/06/15 00:37:44;;;;;;;2.72;1.60;;;;;;;;;;143731;571;47022;-85
2021/06/15 00:40:11;;;;;;;2.97;1.35;;;;;;;;;;143731;594;46013;-85
2021/06/15 00:42:38;;;;;;;2.62;1.98;;;;;;;;;;143736;582;46020;-86
2021/06/15 00:45:12;;;;;;;4.30;1.35;;;;;;;;;;143735;601;46012;-86
2021/06/15 00:47:41;;;;;;;2.03;1.25;;;;;;;;;;143731;602;47029;-87
2021/06/15 00:50:08;;;;;;;3.85;1.42;;;;;;;;;;143737;612;46014;-86
2021/06/15 00:52:34;;;;;;;3.03;1.60;;;;;;;;;;143731;623;47020;-86
2021/06/15 00:55:01;;;;;;;4.45;1.20;;;;;;;;;;143735;608;46020;-84
2021/06/15 00:57:28;;;;;;;6.85;1.73;;;;;;;;;;143732;579;47023;-86
2021/06/15 00:59:56;;;;;;;3.45;1.52;;;;;;;;;;143732;569;46012;-85
2021/06/15 01:02:24;;;;;;;5.40;1.45;;;;;;;;;;143733;674;46015;-87
2021/06/15 01:04:51;;;;;;;3.15;1.60;;;;;;;;;;143736;575;46012;-85
2021/06/15 01:07:26;;;;;;;6.03;1.70;;;;;;;;;;143732;663;46022;-87
2021/06/15 01:10:03;;;;;;;2.67;1.30;;;;;;;;;;143732;601;46012;-85
2021/06/15 01:13:14;;;;;;;8.07;1.80;;;;;;;;;;143735;591;46021;-86
2021/06/15 01:15:59;;;;;;;2.92;1.17;;;;;;;;;;143734;637;46012;-86
2021/06/15 01:18:28;;;;;;;4.57;1.67;;;;;;;;;;143729;587;47023;-86
2021/06/15 01:21:03;;;;;;;1.92;1.23;;;;;;;;;;143732;612;46012;-87
2021/06/15 01:24:04;;;;;;;3.75;1.90;;;;;;;;;;143732;606;46020;-86
2021/06/15 01:27:00;;;;;;;3.12;1.50;;;;;;;;;;143735;583;46021;-86
2021/06/15 01:29:34;;;;;;;4.15;1.08;;;;;;;;;;143734;590;46022;-87
2021/06/15 01:32:27;;;;;;;2.75;1.33;;;;;;;;;;143734;566;46012;-87
2021/06/15 01:34:55;;;;;;;5.57;2.62;;;;;;;;;;143734;564;46020;-85
2021/06/15 01:37:35;;;;;;;3.83;1.25;;;;;;;;;;143736;569;46012;-83
2021/06/15 01:40:13;;;;;;;1.67;1.10;;;;;;;;;;143733;589;46022;-85
2021/06/15 01:43:02;;;;;;;3.78;1.12;;;;;;;;;;143734;583;46012;-85
2021/06/15 01:45:39;;;;;;;2.25;1.10;;;;;;;;;;143734;618;46020;-85
2021/06/15 01:48:28;;;;;;;5.00;1.10;;;;;;;;;;143735;606;46021;-85
2021/06/15 01:50:57;;;;;;;1.87;1.15;;;;;;;;;;143732;614;47022;-85
2021/06/15 01:53:25;;;;;;;1.92;0.93;;;;;;;;;;143735;606;46020;-87
2021/06/15 01:55:54;;;;;;;1.92;1.02;;;;;;;;;;143735;630;46021;-86
2021/06/15 01:58:27;;;;;;;2.08;1.00;;;;;;;;;;143735;609;46012;-85
2021/06/15 02:00:56;;;;;;;4.43;1.08;;;;;;;;;;143733;572;47022;-85
2021/06/15 02:03:24;;;;;;;2.28;1.23;;;;;;;;;;143732;581;46013;-86
2021/06/15 02:05:55;;;;;;;5.90;1.08;;;;;;;;;;143733;564;46020;-86
2021/06/15 02:08:46;;;;;;;1.98;1.05;;;;;;;;;;143735;587;46012;-86
2021/06/15 02:11:14;;;;;;;2.60;1.10;;;;;;;;;;143732;585;46023;-86
2021/06/15 02:13:45;;;;;;;1.92;0.95;;;;;;;;;;143734;653;46012;-86
2021/06/15 02:16:13;;;;;;;4.12;1.00;;;;;;;;;;143735;592;46020;-85
2021/06/15 02:18:45;;;;;;;4.05;1.10;;;;;;;;;;143736;573;46013;-87
2021/06/15 02:21:14;;;;;;;5.05;1.10;;;;;;;;;;143735;593;46022;-86
2021/06/15 02:23:44;;;;;;;5.12;1.25;;;;;;;;;;143731;583;47012;-85
2021/06/15 02:26:15;;;;;;;2.60;1.02;;;;;;;;;;143732;628;48021;-85
2021/06/15 02:28:43;;;;;;;4.00;1.70;;;;;;;;;;143736;649;46012;-86
2021/06/15 02:31:16;;;;;;;2.35;1.27;;;;;;;;;;143733;604;47022;-86
2021/06/15 02:33:53;;;;;;;2.90;1.42;;;;;;;;;;143737;589;46921;-86
2021/06/15 02:36:40;;;;;;;2.20;1.25;;;;;;;;;;143733;641;46020;-86
2021/06/15 02:39:15;;;;;;;4.37;1.23;;;;;;;;;;143738;594;46012;-84
2021/06/15 02:41:43;;;;;;;2.58;1.10;;;;;;;;;;143736;594;46020;-86
2021/06/15 02:44:16;;;;;;;5.25;1.85;;;;;;;;;;143735;598;46012;-86
2021/06/15 02:46:45;;;;;;;2.85;1.23;;;;;;;;;;143735;604;46021;-86
2021/06/15 02:49:18;;;;;;;2.58;1.25;;;;;;;;;;143735;575;46012;-87
2021/06/15 02:52:08;;;;;;;4.30;1.30;;;;;;;;;;143736;715;46014;-86
2021/06/15 02:54:51;;;;;;;1.42;1.10;;;;;;;;;;143735;586;46012;-85
2021/06/15 02:57:19;;;;;;;2.07;0.97;;;;;;;;;;143734;593;46020;-86
2021/06/15 02:59:46;;;;;;;3.03;1.10;;;;;;;;;;143735;569;46012;-85
2021/06/15 03:02:13;;;;;;;1.85;1.20;;;;;;;;;;143733;615;46022;-86
2021/06/15 03:04:40;;;;;;;3.22;1.20;;;;;;;;;;143732;676;46014;-88
2021/06/15 03:07:07;;;;;;;2.72;1.30;;;;;;;;;;143734;565;46020;-88
2021/06/15 03:09:34;;;;;;;1.58;0.90;;;;;;;;;;143736;600;46012;-84
2021/06/15 03:12:19;;;;;;;2.67;0.93;;;;;;;;;;143736;578;46020;-85
2021/06/15 03:14:51;;;;;;;4.43;1.30;;;;;;;;;;143734;586;46920;-88
2021/06/15 03:17:21;;;;;;;1.57;1.03;;;;;;;;;;143736;649;46021;-86
2021/06/15 03:20:08;;;;;;;1.27;0.90;;;;;;;;;;143738;639;46012;-85
2021/06/15 03:22:46;;;;;;;1.60;1.08;;;;;;;;;;143735;684;46022;-86
2021/06/15 03:25:15;;;;;;;5.45;1.55;;;;;;;;;;143739;603;46014;-84
2021/06/15 03:27:52;;;;;;;5.45;1.62;;;;;;;;;;143736;625;46020;-86
2021/06/15 03:30:20;;;;;;;4.97;1.33;;;;;;;;;;143737;601;46012;-88
2021/06/15 03:32:52;;;;;;;3.83;1.20;;;;;;;;;;143735;569;46023;-88
2021/06/15 03:35:23;;;;;;;2.08;1.17;;;;;;;;;;143732;586;46920;-86
2021/06/15 03:37:53;;;;;;;4.82;1.10;;;;;;;;;;143735;601;46020;-87
2021/06/15 03:40:25;;;;;;;4.35;1.58;;;;;;;;;;143738;615;46018;-87
2021/06/15 03:42:55;;;;;;;2.12;1.50;;;;;;;;;;143737;629;46022;-86
2021/06/15 03:45:26;;;;;;;4.43;1.30;;;;;;;;;;143735;564;46012;-87
2021/06/15 03:47:56;;;;;;;3.08;1.15;;;;;;;;;;143736;677;46021;-88
2021/06/15 03:50:23;;;;;;;3.37;1.05;;;;;;;;;;143736;571;46012;-86
2021/06/15 03:52:57;;;;;;;4.05;1.08;;;;;;;;;;143734;655;46022;-85
2021/06/15 03:55:29;;;;;;;9.80;1.45;;;;;;;;;;143742;646;45021;-86
2021/06/15 03:57:58;;;;;;;2.70;1.00;;;;;;;;;;143735;635;47014;-86
2021/06/15 04:00:28;;;;;;;3.47;1.30;;;;;;;;;;143737;573;46012;-87
2021/06/15 04:02:57;;;;;;;1.90;1.15;;;;;;;;;;143735;593;47020;-87
2021/06/15 04:05:27;;;;;;;3.25;0.90;;;;;;;;;;143734;565;46012;-86
2021/06/15 04:07:56;;;;;;;2.35;1.15;;;;;;;;;;143736;579;46021;-87
2021/06/15 04:10:24;;;;;;;3.35;1.05;;;;;;;;;;143738;584;46012;-86
2021/06/15 04:12:52;;;;;;;2.12;1.30;;;;;;;;;;143737;583;46022;-87
2021/06/15 04:15:19;;;;;;;5.37;1.30;;;;;;;;;;143736;565;46012;-86
2021/06/15 04:17:51;;;;;;;1.65;1.20;;;;;;;;;;143738;672;46021;-86
2021/06/15 04:20:29;;;;;;;1.60;1.20;;;;;;;;;;143736;730;46012;-85
2021/06/15 04:22:57;;;;;;;2.90;1.37;;;;;;;;;;143734;655;46022;-85
2021/06/15 04:25:30;;;;;;;1.67;1.10;;;;;;;;;;143734;574;46014;-87
2021/06/15 04:27:58;;;;;;;3.80;1.10;;;;;;;;;;143735;589;46020;-88
2021/06/15 04:30:34;;;;;;;3.33;1.45;;;;;;;;;;143737;652;46013;-87
2021/06/15 04:33:03;;;;;;;2.03;1.23;;;;;;;;;;143735;574;46023;-87
2021/06/15 04:35:42;;;;;;;3.22;1.27;;;;;;;;;;143734;571;46012;-86
2021/06/15 04:38:15;;;;;;;1.92;1.23;;;;;;;;;;143736;663;46021;-87
2021/06/15 04:40:49;;;;;;;2.10;1.77;;;;;;;;;;143735;614;46012;-86
2021/06/15 04:43:46;;;;;;;4.03;1.27;;;;;;;;;;143736;671;46046;-87
2021/06/15 04:46:29;;;;;;;2.75;1.85;;;;;;;;;;143734;577;46013;-89
2021/06/15 04:49:28;;;;;;;3.95;1.33;;;;;;;;;;143736;590;46028;-87
2021/06/15 04:52:00;;;;;;;1.70;1.40;;;;;;;;;;143737;583;46012;-86
2021/06/15 04:54:37;;;;;;;3.35;2.03;;;;;;;;;;143734;564;46021;-86
2021/06/15 04:57:09;;;;;;;4.53;1.23;;;;;;;;;;143734;609;46920;-87
2021/06/15 04:59:37;;;;;;;5.80;1.27;;;;;;;;;;143735;587;46020;-88
2021/06/15 05:02:05;;;;;;;5.40;1.37;;;;;;;;;;143736;606;46021;-86
2021/06/15 05:04:34;;;;;;;3.65;1.80;;;;;;;;;;143734;588;47022;-87
2021/06/15 05:07:02;;;;;;;3.78;1.20;;;;;;;;;;143731;567;47012;-86
2021/06/15 05:09:30;;;;;;;3.80;1.33;;;;;;;;;;143736;643;46021;-86
2021/06/15 05:11:59;;;;;;;3.35;1.37;;;;;;;;;;143737;573;46012;-87
2021/06/15 05:14:33;;;;;;;6.87;1.20;;;;;;;;;;143735;571;46022;-88
2021/06/15 05:17:01;;;;;;;2.35;1.35;;;;;;;;;;143733;565;46012;-87
2021/06/15 05:19:28;;;;;;;2.75;1.02;;;;;;;;;;143735;574;46020;-87
2021/06/15 05:22:10;;;;;;;5.40;1.25;;;;;;;;;;143736;674;46012;-85
2021/06/15 05:24:53;;;;;;;3.22;1.17;;;;;;;;;;143734;570;46023;-87
2021/06/15 05:27:25;;;;;;;1.55;0.98;;;;;;;;;;143735;580;46012;-86
2021/06/15 05:29:52;;;;;;;2.75;0.90;;;;;;;;;;143736;573;46020;-85
2021/06/15 05:32:19;;;;;;;3.40;1.50;;;;;;;;;;143736;602;46018;-87
2021/06/15 05:34:46;;;;;;;4.15;0.90;;;;;;;;;;143734;598;46051;-89
2021/06/15 05:37:13;;;;;;;2.25;1.12;;;;;;;;;;143734;599;46012;-87
2021/06/15 05:39:47;;;;;;;9.98;1.50;;;;;;;;;;143740;581;45021;-87
2021/06/15 05:42:31;;;;;;;1.20;0.85;;;;;;;;;;143739;619;46020;-87
2021/06/15 05:45:07;;;;;;;4.50;1.10;;;;;;;;;;143738;580;45022;-90
2021/06/15 05:47:41;;;;;;;3.85;1.02;;;;;;;;;;143739;632;45044;-88
2021/06/15 05:50:09;;;;;;;2.85;1.35;;;;;;;;;;143736;582;46020;-89
2021/06/15 05:52:35;;;;;;;5.00;1.37;;;;;;;;;;143737;594;46013;-87
2021/06/15 05:55:03;;;;;;;6.70;1.40;;;;;;;;;;143735;607;46023;-86
2021/06/15 05:57:30;;;;;;;11.45;1.95;;;;;;;;;;143734;586;46012;-87
2021/06/15 06:00:01;;;;;;;31.87;3.05;;;;;;;;;;143734;593;46021;-88
2021/06/15 06:02:28;;;;;;;9.77;1.55;;;;;;;;;;143736;591;46020;-89
2021/06/15 06:10:29;;;;;;;4.12;1.30;;;;;;;;;;143734;665;46014;-88
2021/06/15 06:12:56;;;;;;;13.80;1.30;;;;;;;;;;143737;573;46012;-90
2021/06/15 06:15:23;;;;;;;3.05;1.00;;;;;;;;;;143737;647;46022;-89
2021/06/15 06:17:50;;;;;;;12.85;2.00;;;;;;;;;;143735;594;46012;-90
2021/06/15 06:20:18;;;;;;;7.70;1.10;;;;;;;;;;143738;593;46014;-88
2021/06/15 06:22:45;;;;;;;13.30;1.30;;;;;;;;;;143737;569;46013;-89
2021/06/15 06:25:14;;;;;;;3.97;1.00;;;;;;;;;;143734;651;46016;-88
2021/06/15 06:27:41;;;;;;;3.95;1.80;;;;;;;;;;143738;744;46012;-88
2021/06/15 06:30:09;;;;;;;3.25;1.10;;;;;;;;;;143736;648;47021;-88
2021/06/15 06:32:36;;;;;;;9.55;1.40;;;;;;;;;;143735;605;46012;-88
2021/06/15 06:35:04;;;;;;;2.10;0.60;;;;;;;;;;143737;592;46022;-88
2021/06/15 06:37:31;;;;;;;4.45;1.25;;;;;;;;;;143735;609;46013;-88
2021/06/15 06:39:58;;;;;;;2.08;1.00;;;;;;;;;;143737;579;46020;-88
2021/06/15 06:42:26;;;;;;;3.72;1.17;;;;;;;;;;143737;576;46012;-87
2021/06/15 06:44:53;;;;;;;8.32;1.12;;;;;;;;;;143736;621;46022;-90
2021/06/15 06:47:20;;;;;;;4.72;1.40;;;;;;;;;;143735;581;46020;-89
2021/06/15 06:49:46;;;;;;;10.32;1.92;;;;;;;;;;143734;608;46020;-92
2021/06/15 06:52:13;;;;;;;9.88;1.90;;;;;;;;;;143738;618;46013;-89
2021/06/15 06:54:40;;;;;;;5.15;1.67;;;;;;;;;;143735;599;46022;-91
2021/06/15 06:57:08;;;;;;;2.30;1.00;;;;;;;;;;143738;600;45020;-91
2021/06/15 06:59:35;;;;;;;5.50;1.23;;;;;;;;;;143737;590;46020;-89
2021/06/15 07:02:02;;;;;;;4.00;1.17;;;;;;;;;;143737;679;46012;-92
2021/06/15 07:04:29;;;;;;;5.70;1.08;;;;;;;;;;143738;571;46022;-90
2021/06/15 07:06:56;;;;;;;2.25;1.12;;;;;;;;;;143734;626;46013;-91
2021/06/15 07:09:22;;;;;;;3.78;1.15;;;;;;;;;;143737;567;46014;-89
2021/06/15 07:11:49;;;;;;;2.08;0.75;;;;;;;;;;143739;602;46018;-90
2021/06/15 07:14:16;;;;;;;3.67;1.35;;;;;;;;;;143733;647;46022;-89
2021/06/15 07:16:43;;;;;;;5.28;0.95;;;;;;;;;;143734;613;46012;-89
2021/06/15 07:19:10;;;;;;;3.25;1.00;;;;;;;;;;143739;583;45032;-89
2021/06/15 07:21:36;;;;;;;3.67;1.17;;;;;;;;;;143738;577;46013;-90
2021/06/15 07:24:07;;;;;;;1.55;0.98;;;;;;;;;;143736;603;46020;-90
2021/06/15 07:26:35;;;;;;;4.97;1.00;;;;;;;;;;143737;579;46012;-89
2021/06/15 07:29:02;;;;;;;2.85;0.90;;;;;;;;;;143739;569;46019;-91
2021/06/15 07:31:29;;;;;;;1.62;0.90;;;;;;;;;;143739;597;46012;-90
2021/06/15 07:33:57;;;;;;;7.40;1.00;;;;;;;;;;143736;662;46022;-88
2021/06/15 07:36:26;;;;;;;3.80;1.42;;;;;;;;;;143736;588;46013;-92
2021/06/15 07:38:53;;;;;;;1.98;1.02;;;;;;;;;;143734;586;46014;-91
2021/06/15 07:41:21;;;;;;;3.55;1.37;;;;;;;;;;143737;596;46012;-91
2021/06/15 07:43:47;;;;;;;7.85;1.33;;;;;;;;;;143733;698;47022;-90
2021/06/15 07:46:15;;;;;;;3.92;1.10;;;;;;;;;;143735;628;45021;-91
2021/06/15 07:48:43;;;;;;;2.42;0.95;;;;;;;;;;143735;645;46020;-90
2021/06/15 07:51:10;;;;;;;4.78;1.27;;;;;;;;;;143738;594;46013;-91
2021/06/15 07:53:39;;;;;;;3.67;0.90;;;;;;;;;;143735;670;46020;-91
2021/06/15 07:56:07;;;;;;;3.17;1.20;;;;;;;;;;143734;576;46012;-92
2021/06/15 07:58:35;;;;;;;1.50;1.00;;;;;;;;;;143736;587;45021;-90
2021/06/15 08:01:18;;;;;;;4.15;1.40;;;;;;;;;;143739;574;45021;-90
2021/06/15 08:04:24;;;;;;;4.45;1.40;;;;;;;;;;143735;602;45916;-87
2021/06/15 08:07:19;;;;;;;3.78;1.50;;;;;;;;;;143734;570;47020;-89
2021/06/15 08:10:23;;;;;;;2.72;1.20;;;;;;;;;;143738;591;45030;-88
2021/06/15 08:13:09;;;;;;;3.42;1.40;;;;;;;;;;143739;567;45023;-89
2021/06/15 08:16:03;;;;;;;2.50;1.60;;;;;;;;;;143737;569;45023;-89
2021/06/15 08:19:07;;;;;;;3.70;1.35;;;;;;;;;;143737;650;46012;-88
2021/06/15 08:22:09;;;;;;;3.60;1.00;;;;;;;;;;143738;601;45021;-90
2021/06/15 08:24:45;;;;;;;4.82;0.90;;;;;;;;;;143736;589;46018;-87
2021/06/15 08:27:18;;;;;;;4.55;1.30;;;;;;;;;;143732;599;46022;-89
2021/06/15 08:29:44;;;;;;;3.15;1.00;;;;;;;;;;143734;595;46012;-87
2021/06/15 08:32:11;;;;;;;1.77;1.02;;;;;;;;;;143733;564;46020;-88
2021/06/15 08:35:00;;;;;;;9.80;1.80;;;;;;;;;;143735;595;46012;-87
2021/06/15 08:37:40;;;;;;;1.25;0.65;;;;;;;;;;143733;619;46014;-87
2021/06/15 08:40:15;;;;;;;1.62;1.00;;;;;;;;;;143734;581;46012;-88
2021/06/15 08:42:43;;;;;;;5.55;2.08;;;;;;;;;;143736;587;46020;-87
2021/06/15 08:45:12;;;;;;;6.05;1.42;;;;;;;;;;143735;600;46012;-87
2021/06/15 08:47:47;;;;;;;1.62;0.85;;;;;;;;;;143733;601;46022;-88
2021/06/15 08:50:19;;;;;;;2.37;0.95;;;;;;;;;;143729;570;48012;-87
2021/06/15 08:52:53;;;;;;;2.03;1.10;;;;;;;;;;143734;585;46021;-89
2021/06/15 08:55:21;;;;;;;4.97;1.20;;;;;;;;;;143738;663;45020;-88
2021/06/15 08:58:34;;;;;;;4.55;1.17;;;;;;;;;;143733;574;46022;-89
2021/06/15 09:01:01;;;;;;;1.50;0.90;;;;;;;;;;143733;626;46012;-89
2021/06/15 09:03:32;;;;;;;7.30;1.27;;;;;;;;;;143735;569;46020;-89
2021/06/15 09:05:59;;;;;;;2.25;1.35;;;;;;;;;;143734;698;46012;-88
2021/06/15 09:08:26;;;;;;;3.47;1.60;;;;;;;;;;143731;575;47023;-88
2021/06/15 09:10:52;;;;;;;4.82;1.20;;;;;;;;;;143733;598;46012;-88
2021/06/15 09:13:39;;;;;;;2.60;1.27;;;;;;;;;;143733;613;46021;-88
2021/06/15 09:16:44;;;;;;;3.50;1.23;;;;;;;;;;143733;582;46012;-87
2021/06/15 09:19:18;;;;;;;3.03;1.10;;;;;;;;;;143733;565;46020;-87
2021/06/15 09:21:49;;;;;;;6.72;1.00;;;;;;;;;;143732;613;46012;-88
2021/06/15 09:24:23;;;;;;;2.50;1.12;;;;;;;;;;143730;591;47014;-87
2021/06/15 09:27:16;;;;;;;2.00;1.10;;;;;;;;;;143733;603;46012;-86
2021/06/15 09:29:53;;;;;;;4.75;0.95;;;;;;;;;;143735;602;46025;-88
2021/06/15 09:32:26;;;;;;;3.15;1.50;;;;;;;;;;143731;652;46020;-90
2021/06/15 09:35:03;;;;;;;;;;;;;;;;;;143739;966;46020;-89
2021/06/15 09:38:00;;;;;;;1.98;1.08;;;;;;;;;;143747;576;46010;-87
2021/06/15 09:40:34;;;;;;;4.10;1.30;;;;;;;;;;143731;581;47024;-89
2021/06/15 09:43:27;;;;;;;4.07;1.02;;;;;;;;;;143733;573;46011;-88
2021/06/15 09:45:53;;;;;;;5.20;1.10;;;;;;;;;;143733;580;46020;-89
2021/06/15 09:48:39;;;;;;;2.35;1.30;;;;;;;;;;143736;565;46010;-87
2021/06/15 09:51:13;;;;;;;7.10;1.30;;;;;;;;;;143732;624;46024;-88
2021/06/15 09:53:50;;;;;;;6.82;1.23;;;;;;;;;;143731;566;46920;-88
2021/06/15 09:56:20;;;;;;;2.53;1.20;;;;;;;;;;143733;573;46020;-88
2021/06/15 09:58:58;;;;;;;8.68;1.17;;;;;;;;;;143736;577;46010;-88
2021/06/15 10:01:42;;;;;;;1.90;1.20;;;;;;;;;;143734;666;46022;-89
2021/06/15 10:04:23;;;;;;;3.62;1.42;;;;;;;;;;143733;577;46010;-86
2021/06/15 10:06:58;;;;;;;3.03;1.25;;;;;;;;;;143734;590;46021;-88
2021/06/15 10:09:32;;;;;;;5.15;1.17;;;;;;;;;;143734;564;46010;-89
2021/06/15 10:12:04;;;;;;;7.07;1.40;;;;;;;;;;143733;613;46020;-90
2021/06/15 10:14:31;;;;;;;3.03;1.50;;;;;;;;;;143733;565;46010;-88
2021/06/15 10:16:59;;;;;;;7.57;1.35;;;;;;;;;;143734;575;46020;-87
2021/06/15 10:19:27;;;;;;;2.40;1.33;;;;;;;;;;143733;604;46010;-89
2021/06/15 10:21:55;;;;;;;3.55;1.65;;;;;;;;;;143732;597;46013;-89
2021/06/15 10:24:23;;;;;;;7.18;1.20;;;;;;;;;;143734;633;46010;-88
2021/06/15 10:26:53;;;;;;;3.60;1.15;;;;;;;;;;143735;576;46020;-88
2021/06/15 10:29:21;;;;;;;2.67;1.20;;;;;;;;;;143737;570;46010;-87
2021/06/15 10:31:52;;;;;;;3.72;1.20;;;;;;;;;;143732;585;46048;-87
2021/06/15 10:34:56;;;;;;;3.72;1.17;;;;;;;;;;143731;588;46010;-89
2021/06/15 10:37:52;;;;;;;4.35;1.30;;;;;;;;;;143734;577;46021;-87
2021/06/15 10:40:39;;;;;;;5.53;1.70;;;;;;;;;;143737;640;46019;-87
2021/06/15 10:43:20;;;;;;;2.65;1.35;;;;;;;;;;143733;567;46021;-87
2021/06/15 10:45:52;;;;;;;4.93;2.00;;;;;;;;;;143733;565;46010;-87
2021/06/15 10:48:34;;;;;;;2.05;1.33;;;;;;;;;;143734;576;46012;-87
2021/06/15 10:51:16;;;;;;;4.75;1.60;;;;;;;;;;143735;589;46010;-89
2021/06/15 10:53:42;;;;;;;3.75;1.17;;;;;;;;;;143732;664;46022;-88
2021/06/15 10:56:11;;;;;;;2.80;1.58;;;;;;;;;;143734;632;46010;-88
2021/06/15 10:59:08;;;;;;;5.65;1.20;;;;;;;;;;143734;576;46021;-89
2021/06/15 11:01:42;;;;;;;2.92;1.30;;;;;;;;;;143733;658;46010;-89
2021/06/15 11:04:15;;;;;;;3.70;1.10;;;;;;;;;;143734;564;46022;-87
2021/06/15 11:06:49;;;;;;;8.65;1.10;;;;;;;;;;143732;582;46010;-87
2021/06/15 11:09:25;;;;;;;1.98;1.00;;;;;;;;;;143734;571;46020;-86
2021/06/15 11:12:21;;;;;;;3.53;1.25;;;;;;;;;;143737;596;46010;-89
2021/06/15 11:15:07;;;;;;;2.83;0.88;;;;;;;;;;143730;604;48025;-89
2021/06/15 11:17:50;;;;;;;8.23;1.30;;;;;;;;;;143737;635;45918;-93
2021/06/15 11:20:32;;;;;;;3.85;0.82;;;;;;;;;;143734;620;46021;-88
2021/06/15 11:23:36;;;;;;;4.55;1.27;;;;;;;;;;143734;585;46010;-89
2021/06/15 11:26:14;;;;;;;11.12;2.83;;;;;;;;;;143732;608;46024;-90
2021/06/15 11:28:46;;;;;;;8.65;1.98;;;;;;;;;;143735;577;46020;-87
2021/06/15 11:31:38;;;;;;;7.55;1.58;;;;;;;;;;143733;594;46020;-88
2021/06/15 11:34:15;;;;;;;3.30;1.90;;;;;;;;;;143737;607;46011;-87
2021/06/15 11:36:51;;;;;;;4.75;1.50;;;;;;;;;;143732;588;46023;-90
2021/06/15 11:39:32;;;;;;;8.32;2.00;;;;;;;;;;143731;601;46020;-88
2021/06/15 11:42:19;;;;;;;4.78;1.40;;;;;;;;;;143735;580;46021;-87
2021/06/15 11:45:19;;;;;;;3.47;1.83;;;;;;;;;;143734;571;46012;-91
2021/06/15 11:47:57;;;;;;;3.87;1.75;;;;;;;;;;143732;582;46024;-90
2021/06/15 11:50:40;;;;;;;3.53;1.48;;;;;;;;;;143733;569;46021;-91
2021/06/15 11:53:13;;;;;;;;;;;;;;;;;;143740;980;46020;-91
2021/06/15 11:55:44;;;;;;;;;;;;;;;;;;143749;971;46020;-88
2021/06/15 11:58:40;;;;;;;5.57;1.33;;;;;;;;;;143744;586;46023;-90
2021/06/15 12:01:11;;;;;;;5.43;1.37;;;;;;;;;;143733;586;46010;-91
2021/06/15 12:03:44;;;;;;;4.72;1.58;;;;;;;;;;143735;575;45915;-89
2021/06/15 12:06:13;;;;;;;1.92;1.20;;;;;;;;;;143735;585;46010;-89
2021/06/15 12:08:44;;;;;;;2.90;1.17;;;;;;;;;;143733;584;46022;-88
2021/06/15 12:11:14;;;;;;;2.67;0.98;;;;;;;;;;143731;576;46010;-89
2021/06/15 12:13:42;;;;;;;3.90;1.62;;;;;;;;;;143732;582;46021;-88
2021/06/15 12:16:11;;;;;;;1.92;1.50;;;;;;;;;;143737;602;46010;-90
2021/06/15 12:18:45;;;;;;;3.87;1.17;;;;;;;;;;143733;590;46022;-89
2021/06/15 12:21:24;;;;;;;1.90;0.80;;;;;;;;;;143734;599;46010;-89
2021/06/15 12:24:12;;;;;;;3.20;1.10;;;;;;;;;;143735;597;46020;-89
2021/06/15 12:26:41;;;;;;;5.03;1.40;;;;;;;;;;143735;581;46021;-89
2021/06/15 12:29:10;;;;;;;4.87;1.52;;;;;;;;;;143732;566;46023;-89
2021/06/15 12:31:45;;;;;;;2.75;1.25;;;;;;;;;;143732;598;46010;-90
2021/06/15 12:34:25;;;;;;;4.68;1.10;;;;;;;;;;143738;634;46020;-90
2021/06/15 12:37:02;;;;;;;4.53;1.30;;;;;;;;;;143735;605;46010;-88
2021/06/15 12:39:33;;;;;;;2.03;1.00;;;;;;;;;;143732;571;46022;-92
2021/06/15 12:42:05;;;;;;;4.55;1.30;;;;;;;;;;143734;583;45921;-90
2021/06/15 12:44:36;;;;;;;4.87;1.60;;;;;;;;;;143733;643;46020;-89
2021/06/15 12:47:23;;;;;;;4.57;1.20;;;;;;;;;;143735;624;46010;-89
2021/06/15 12:49:58;;;;;;;2.45;1.08;;;;;;;;;;143732;643;46024;-92
2021/06/15 12:52:38;;;;;;;6.07;1.10;;;;;;;;;;143731;615;46010;-89
2021/06/15 12:55:16;;;;;;;2.47;1.40;;;;;;;;;;143735;679;46020;-88
2021/06/15 12:58:04;;;;;;;2.37;1.30;;;;;;;;;;143736;585;46010;-90
2021/06/15 13:00:31;;;;;;;6.05;1.20;;;;;;;;;;143734;590;46022;-88
2021/06/15 13:03:12;;;;;;;2.80;1.15;;;;;;;;;;143733;569;46010;-90
2021/06/15 13:05:41;;;;;;;8.73;1.45;;;;;;;;;;143734;628;46044;-90
2021/06/15 13:08:08;;;;;;;2.20;1.00;;;;;;;;;;143736;564;46010;-90
2021/06/15 13:10:39;;;;;;;2.12;1.20;;;;;;;;;;143732;601;46022;-91
2021/06/15 13:13:14;;;;;;;2.45;1.23;;;;;;;;;;143733;611;46029;-89
2021/06/15 13:15:42;;;;;;;3.08;1.20;;;;;;;;;;143733;576;46020;-90
2021/06/15 13:18:10;;;;;;;3.83;1.33;;;;;;;;;;143735;563;46010;-91
2021/06/15 13:20:38;;;;;;;2.55;1.33;;;;;;;;;;143732;578;46023;-90
2021/06/15 13:23:22;;;;;;;2.30;1.00;;;;;;;;;;143729;608;46012;-91
2021/06/15 13:25:49;;;;;;;6.70;1.15;;;;;;;;;;143733;589;46020;-90
2021/06/15 13:28:25;;;;;;;1.67;0.90;;;;;;;;;;143736;579;46010;-91
2021/06/15 13:30:53;;;;;;;5.07;1.77;;;;;;;;;;143731;587;47020;-89
2021/06/15 13:33:34;;;;;;;2.12;1.02;;;;;;;;;;143731;569;46011;-90
2021/06/15 13:36:01;;;;;;;5.22;1.20;;;;;;;;;;143735;607;46020;-89
2021/06/15 13:38:31;;;;;;;4.10;0.95;;;;;;;;;;143735;658;46020;-91
2021/06/15 13:41:04;;;;;;;6.05;1.08;;;;;;;;;;143733;569;46022;-90
2021/06/15 13:43:40;;;;;;;3.47;1.20;;;;;;;;;;143731;619;46010;-92
2021/06/15 13:46:12;;;;;;;3.95;1.00;;;;;;;;;;143734;610;46020;-91
2021/06/15 13:48:41;;;;;;;5.57;0.85;;;;;;;;;;143735;652;46010;-89
2021/06/15 13:51:15;;;;;;;2.12;1.00;;;;;;;;;;143731;659;47023;-90
2021/06/15 13:53:49;;;;;;;2.08;1.20;;;;;;;;;;143734;569;46020;-92
2021/06/15 13:56:18;;;;;;;8.15;1.20;;;;;;;;;;143733;617;46021;-89
2021/06/15 13:58:47;;;;;;;4.20;1.00;;;;;;;;;;143731;593;47010;-90
2021/06/15 14:01:15;;;;;;;2.28;0.93;;;;;;;;;;143733;626;47022;-90
2021/06/15 14:03:41;;;;;;;2.22;0.82;;;;;;;;;;143735;575;46039;-90
2021/06/15 14:06:09;;;;;;;5.78;1.37;;;;;;;;;;143734;596;46020;-88
2021/06/15 14:08:36;;;;;;;1.05;0.90;;;;;;;;;;143737;626;46010;-88
2021/06/15 14:11:03;;;;;;;3.12;1.33;;;;;;;;;;143734;614;46022;-89
2021/06/15 14:13:31;;;;;;;2.30;1.58;;;;;;;;;;143735;630;45021;-89
2021/06/15 14:15:58;;;;;;;6.72;1.77;;;;;;;;;;143734;657;46020;-92
2021/06/15 14:18:26;;;;;;;9.32;1.50;;;;;;;;;;143735;570;46010;-92
2021/06/15 14:20:54;;;;;;;3.08;1.02;;;;;;;;;;143734;592;46023;-92
2021/06/15 14:23:22;;;;;;;3.70;1.17;;;;;;;;;;143736;604;45920;-91
2021/06/15 14:25:50;;;;;;;3.78;1.10;;;;;;;;;;143736;570;46021;-89
2021/06/15 14:28:19;;;;;;;2.72;1.65;;;;;;;;;;143734;584;46010;-89
2021/06/15 14:30:56;;;;;;;3.60;1.10;;;;;;;;;;143733;608;46022;-90
2021/06/15 14:33:23;;;;;;;3.10;1.37;;;;;;;;;;143736;593;46011;-89
2021/06/15 14:35:50;;;;;;;1.02;0.70;;;;;;;;;;143734;581;46020;-89
2021/06/15 14:38:18;;;;;;;2.58;1.50;;;;;;;;;;143737;656;46010;-89
2021/06/15 14:40:45;;;;;;;3.17;1.25;;;;;;;;;;143732;603;46022;-90
2021/06/15 14:43:12;;;;;;;6.35;2.03;;;;;;;;;;143733;564;46020;-91
2021/06/15 14:45:39;;;;;;;2.05;1.12;;;;;;;;;;143735;569;46020;-89
2021/06/15 14:48:11;;;;;;;1.20;0.60;;;;;;;;;;143737;581;46010;-92
2021/06/15 14:50:38;;;;;;;1.67;0.88;;;;;;;;;;143733;569;46023;-89
2021/06/15 14:53:05;;;;;;;2.12;0.82;;;;;;;;;;143735;569;46010;-90
2021/06/15 14:55:32;;;;;;;2.62;1.45;;;;;;;;;;143737;572;46021;-92
2021/06/15 14:57:58;;;;;;;2.37;1.25;;;;;;;;;;143737;652;46010;-88
2021/06/15 15:00:28;;;;;;;4.62;1.58;;;;;;;;;;143736;587;46020;-89
2021/06/15 15:02:55;;;;;;;3.60;1.33;;;;;;;;;;143735;595;46010;-89
2021/06/15 15:05:24;;;;;;;6.53;1.23;;;;;;;;;;143735;566;46021;-91
2021/06/15 15:07:51;;;;;;;3.37;1.65;;;;;;;;;;143737;578;46010;-90
2021/06/15 15:10:19;;;;;;;1.10;0.90;;;;;;;;;;143734;596;46013;-91
2021/06/15 15:12:48;;;;;;;7.80;1.25;;;;;;;;;;143736;572;46010;-90
2021/06/15 15:15:16;;;;;;;2.85;1.12;;;;;;;;;;143734;648;46012;-88
2021/06/15 15:17:43;;;;;;;2.22;0.95;;;;;;;;;;143738;582;46021;-88
2021/06/15 15:20:11;;;;;;;3.20;1.15;;;;;;;;;;143733;651;46023;-89
2021/06/15 15:22:38;;;;;;;3.87;1.20;;;;;;;;;;143734;585;46010;-91
2021/06/15 15:25:06;;;;;;;1.87;1.00;;;;;;;;;;143735;595;46021;-92